SBKPHKJK

Guest
Details From SBKP - Sao Paulo Viracopos
To HKJK - Nairobi Jomo Kanyatta Intl
Flight Number -
Tags Generated
Created
Modified
Stats Distance 5,046 nm / 9,345 km
Max Altitude 0 ft / 0 m
Waypoints 5
Social Downloads 1
Likes 0
Share VATSIM

Download

Looking for another format? Having issues loading an existing format? Contact us
Advertisement - Login to hide

Notes

Generated

Route

SBKP PP LIRAM R1659 HKJK

ID Type Via Altitude Latitude Longitude Leg Dist Tot Dist Heading (true) Name
O SBKP APT - 0 ft / 0 m -22.99843˚ -47.14702˚ - 0 nm - -
PP NDB - 0 ft / 0 m -22.87017˚ -43.16517˚ 220 nm 220 nm 89° / 87° PAIOL NDB
LIRAM FIX - 0 ft / 0 m -10.83333˚ 13.33000˚ 3307 nm 3527 nm 87° / 70° -
R1659 FIX - 0 ft / 0 m -1.32759˚ 36.91636˚ 1518 nm 5045 nm 70° / 67° -
O HKJK APT - 0 ft / 0 m -1.32774˚ 36.91612˚ 0 nm 5045 nm 238° / 238° -

Altitude Profile

Advertisement - Login to hide

Weather


0- 5 10 15 20 25 30 35+ Temperature / ° C

Clouds and Precipitation
Forecast for 2017-12-13 18:00 UTC. Updated an hour ago

Ground ~20,000 ft ~40,000 ft Winds

SBKP

Details ICAO SBKP (VCP)
Name Sao Paulo Viracopos
Region Brazil
Timezone America/Sao_Paulo (UTC-2.0)
Stats Elevation 2,170 ft / 661 m (AMSL)
Location -23.007383° -47.134522°
Runways 1
Magnetic Variation 21.194° W

METAR

SBKP 131800Z 18006KT 9999 SCT045 30/15 Q1016

Decode

TAF

TAF SBKP 131600Z 1318/1418 17008KT 9999 BKN045 TN17/1408Z TX31/1417Z BECMG 1320/1322 14005KT CAVOK BECMG 1400/1402 08005KT PROB30 1412/1417 34005KT BECMG 1417/1418 14005KT RMK PHH

Decode

Departure Runways

ID Width Length Bearing (true) Bearing (mag) Surface Threshold Offset Overrun Length
15 148 ft / 45 m 10,639 ft / 3,243 m 127.91° 149.10° Asphalt 0 ft / 0 m 205 ft / 62 m
33 148 ft / 45 m 10,639 ft / 3,243 m 307.90° 329.09° Asphalt 0 ft / 0 m 205 ft / 62 m

HKJK

Details ICAO HKJK (NBO)
Name Nairobi Jomo Kanyatta Intl
Region Kenya
Timezone Africa/Nairobi (UTC+3.0)
Stats Elevation 5,330 ft / 1,625 m (AMSL)
Location -1.317073° 36.930757°
Runways 1
Magnetic Variation 0.575° E

METAR

HKJK 131800Z 05008KT 9999 FEW032 20/12 Q1022 NOSIG

Decode

TAF

TAF HKJK 131700Z 1318/1424 04005KT 9999 FEW019 TEMPO 1400/1406 CAVOK BECMG 1408/1411 05010KT 9999 FEW025 TEMPO 1412/1418 SCT027 BECMG 1420/1423 04005KT FEW019

Decode

Destination Runways

ID Width Length Bearing (true) Bearing (mag) Surface Threshold Offset Overrun Length
06 148 ft / 45 m 13,215 ft / 4,028 m 53.90° 53.32° Asphalt 0 ft / 0 m 194 ft / 59 m
24 148 ft / 45 m 13,215 ft / 4,028 m 233.90° 233.32° Asphalt 0 ft / 0 m 197 ft / 60 m

Approach Navaids

Runway Type Ident Frequency Range Bearing (true) Bearing (mag) Slope Elevation
06 Localiser INL 110.30 MHz 18 nm / 33 km 53.84° 53.26° - 5,278 ft / 1,609 m (AMSL)
06 Glidescope INL 110.30 MHz 10 nm / 19 km 53.90° 53.32° 3.00° 5,343 ft / 1,629 m (AMSL)